createdAt,value
2023-10-23T00:00:36.536Z,0
2023-10-23T00:10:33.806Z,0
2023-10-23T00:15:33.274Z,0
2023-10-23T00:20:43.754Z,0
2023-10-23T00:25:33.261Z,0
2023-10-23T00:30:43.739Z,0
2023-10-23T00:35:33.661Z,0
2023-10-23T00:40:33.663Z,0
2023-10-23T00:45:42.783Z,0
2023-10-23T00:50:42.899Z,0
2023-10-23T00:55:42.724Z,0
2023-10-23T01:00:24.116Z,0
2023-10-23T01:05:24.297Z,0
2023-10-23T01:10:24.421Z,0
2023-10-23T01:15:24.398Z,0
2023-10-23T01:20:24.432Z,0
2023-10-23T01:25:21.568Z,0
2023-10-23T01:30:22.110Z,0
2023-10-23T01:35:20.812Z,0
2023-10-23T01:40:21.048Z,0
2023-10-23T01:45:20.728Z,0
2023-10-23T01:50:20.606Z,0
2023-10-23T01:55:23.623Z,0
2023-10-23T02:00:03.858Z,0
2023-10-23T02:05:05.310Z,0
2023-10-23T02:10:01.042Z,0
2023-10-23T02:15:00.916Z,0
2023-10-23T02:20:01.415Z,0
2023-10-23T02:25:12.118Z,0
2023-10-23T02:30:00.928Z,0
2023-10-23T02:35:01.303Z,0
2023-10-23T02:40:00.981Z,0
2023-10-23T02:45:02.003Z,0
2023-10-23T02:49:58.490Z,0
2023-10-23T02:54:57.980Z,0
2023-10-23T02:59:57.966Z,0
2023-10-23T03:04:58.742Z,0
2023-10-23T03:09:59.395Z,0
2023-10-23T03:14:58.131Z,0
2023-10-23T03:19:57.764Z,0
2023-10-23T03:24:57.763Z,0
2023-10-23T03:29:56.159Z,0
2023-10-23T03:34:55.594Z,0
2023-10-23T03:39:56.199Z,0
2023-10-23T03:44:55.466Z,0
2023-10-23T03:49:55.246Z,0
2023-10-23T03:54:55.337Z,0
2023-10-23T03:59:54.837Z,0
2023-10-23T04:01:56.857Z,0
2023-10-23T04:06:17.733Z,0
2023-10-23T04:11:17.959Z,0
2023-10-23T04:16:17.697Z,0
2023-10-23T04:21:17.664Z,0
2023-10-23T04:26:17.456Z,0
2023-10-23T04:31:17.445Z,0
2023-10-23T04:36:17.651Z,0
2023-10-23T04:41:17.532Z,0
2023-10-23T04:46:17.938Z,0
2023-10-23T04:51:14.882Z,0
2023-10-23T04:56:14.752Z,0
2023-10-23T05:00:35.457Z,0
2023-10-23T05:05:37.144Z,0
2023-10-23T05:10:35.832Z,0
2023-10-23T05:15:35.341Z,0
2023-10-23T05:20:36.000Z,0
2023-10-23T05:25:35.928Z,0
2023-10-23T05:30:43.439Z,0
2023-10-23T05:40:44.202Z,0
2023-10-23T05:45:33.517Z,0
2023-10-23T05:50:33.488Z,0
2023-10-23T05:55:34.063Z,0
2023-10-23T06:00:22.819Z,0
2023-10-23T06:05:23.987Z,0
2023-10-23T06:10:20.005Z,0.01
2023-10-23T06:15:19.399Z,0.01
2023-10-23T06:20:19.616Z,0.02
2023-10-23T06:25:24.999Z,0.02
2023-10-23T06:30:19.747Z,0.03
2023-10-23T06:35:20.257Z,0.04
2023-10-23T06:40:19.744Z,0.04
2023-10-23T06:45:20.121Z,0.05
2023-10-23T06:50:18.516Z,0.06
2023-10-23T06:55:19.005Z,0.07
2023-10-23T07:00:00.924Z,0.07
2023-10-23T07:05:01.569Z,0.08
2023-10-23T07:10:01.679Z,0.08
2023-10-23T07:15:01.597Z,0.09
2023-10-23T07:20:01.137Z,0.09
2023-10-23T07:25:01.317Z,0.09
2023-10-23T07:29:59.954Z,0.1
2023-10-23T07:34:59.537Z,0.1
2023-10-23T07:39:59.344Z,0.1
2023-10-23T07:44:59.327Z,0.1
2023-10-23T07:49:59.153Z,0.11
2023-10-23T07:54:58.819Z,0.12
2023-10-23T07:59:59.237Z,0.13
2023-10-23T08:04:59.820Z,0.14
2023-10-23T08:09:59.029Z,0.13
2023-10-23T08:14:56.294Z,0.13
2023-10-23T08:19:58.891Z,0.14
2023-10-23T08:24:55.888Z,0.15
2023-10-23T08:30:03.890Z,0.15
2023-10-23T08:34:56.846Z,0.15
2023-10-23T08:39:56.343Z,0.16
2023-10-23T08:44:56.561Z,0.18
2023-10-23T08:49:56.077Z,0.17
2023-10-23T08:55:11.071Z,0.17
2023-10-23T08:59:55.924Z,0.18
2023-10-23T09:02:01.379Z,0.19
2023-10-23T09:06:22.693Z,0.2
2023-10-23T09:11:17.507Z,0.21
2023-10-23T09:16:17.822Z,0.21
2023-10-23T09:21:17.639Z,0.21
2023-10-23T09:26:17.907Z,0.2
2023-10-23T09:31:15.398Z,0.22
2023-10-23T09:36:14.636Z,0.24
2023-10-23T09:41:14.744Z,0.25
2023-10-23T09:46:14.974Z,0.24
2023-10-23T09:51:17.408Z,0.22
2023-10-23T09:56:14.913Z,0.22
2023-10-23T10:00:37.407Z,0.22
2023-10-23T10:05:37.551Z,0.22
2023-10-23T10:10:38.868Z,0.21
2023-10-23T10:15:34.636Z,0.22
2023-10-23T10:20:34.551Z,0.23
2023-10-23T10:25:34.982Z,0.23
2023-10-23T10:30:34.539Z,0.22
2023-10-23T10:35:46.024Z,0.2
2023-10-23T10:40:35.318Z,0.19
2023-10-23T10:45:34.819Z,0.18
2023-10-23T10:50:36.069Z,0.19
2023-10-23T10:55:43.045Z,0.23
2023-10-23T11:00:17.803Z,0.28
2023-10-23T11:05:18.367Z,0.3
2023-10-23T11:10:17.732Z,0.28
2023-10-23T11:15:20.635Z,0.25
2023-10-23T11:20:17.792Z,0.27
2023-10-23T11:25:17.741Z,0.3
2023-10-23T11:30:17.665Z,0.28
2023-10-23T11:35:15.439Z,0.23
2023-10-23T11:40:14.490Z,0.21
2023-10-23T11:45:14.259Z,0.18
2023-10-23T11:50:14.725Z,0.19
2023-10-23T11:55:14.254Z,0.18
2023-10-23T12:00:15.036Z,0.14
2023-10-23T12:05:15.315Z,0.13
2023-10-23T12:10:14.832Z,0.12
2023-10-23T12:15:12.114Z,0.18
2023-10-23T12:20:12.191Z,0.18
2023-10-23T12:25:11.406Z,0.15
2023-10-23T12:30:16.314Z,0.14
2023-10-23T12:35:19.518Z,0.14
2023-10-23T12:40:11.412Z,0.13
2023-10-23T12:45:11.996Z,0.09
2023-10-23T12:50:11.994Z,0.09
2023-10-23T12:55:12.787Z,0.09
2023-10-23T13:00:08.975Z,0.1
2023-10-23T13:05:09.120Z,0.12
2023-10-23T13:10:08.522Z,0.12
2023-10-23T13:15:08.911Z,0.11
2023-10-23T13:20:51.918Z,0.08
2023-10-23T13:25:09.528Z,0.05
2023-10-23T13:30:08.548Z,0.03
2023-10-23T13:35:10.000Z,0.04
2023-10-23T13:40:06.040Z,0.05
2023-10-23T13:45:05.373Z,0.1
2023-10-23T13:50:05.699Z,0.12
2023-10-23T13:55:05.711Z,0.18
2023-10-23T14:00:05.374Z,0.15
2023-10-23T14:05:06.466Z,0.14
2023-10-23T14:11:29.709Z,0.16
2023-10-23T14:15:07.526Z,0.14
2023-10-23T14:20:24.488Z,0.11
2023-10-23T14:25:03.449Z,0.13
2023-10-23T14:30:03.332Z,0.11
2023-10-23T14:35:03.896Z,0.08
2023-10-23T14:40:03.111Z,0.09
2023-10-23T14:45:02.983Z,0.09
2023-10-23T14:50:03.763Z,0.07
2023-10-23T14:55:02.991Z,0.07
2023-10-23T15:00:03.314Z,0.08
2023-10-23T15:05:03.053Z,0.08
2023-10-23T15:10:00.073Z,0.06
2023-10-23T15:14:59.980Z,0.05
2023-10-23T15:19:59.632Z,0.03
2023-10-23T15:24:59.562Z,0.03
2023-10-23T15:29:59.730Z,0.04
2023-10-23T15:34:59.517Z,0.03
2023-10-23T15:39:59.690Z,0.02
2023-10-23T15:44:56.857Z,0.01
2023-10-23T15:49:57.024Z,0.01
2023-10-23T15:54:56.257Z,0
2023-10-23T15:59:56.954Z,0
2023-10-23T16:05:00.097Z,0
2023-10-23T16:10:01.713Z,0
2023-10-23T16:15:11.290Z,0
2023-10-23T16:19:57.872Z,0
2023-10-23T16:24:58.103Z,0
2023-10-23T16:29:54.543Z,0
2023-10-23T16:34:54.612Z,0
2023-10-23T16:39:53.925Z,0
2023-10-23T16:45:10.368Z,0
2023-10-23T16:49:54.140Z,0
2023-10-23T16:54:54.300Z,0
2023-10-23T16:59:56.097Z,0
2023-10-23T17:01:58.695Z,0
2023-10-23T17:06:15.698Z,0
2023-10-23T17:11:15.376Z,0
2023-10-23T17:16:15.412Z,0
2023-10-23T17:21:15.879Z,0
2023-10-23T17:26:15.573Z,0
2023-10-23T17:31:15.999Z,0
2023-10-23T17:36:15.464Z,0
2023-10-23T17:41:15.442Z,0
2023-10-23T17:46:14.017Z,0
2023-10-23T17:51:16.773Z,0
2023-10-23T17:56:14.486Z,0
2023-10-23T18:00:35.466Z,0
2023-10-23T18:05:35.250Z,0
2023-10-23T18:10:37.020Z,0
2023-10-23T18:15:35.450Z,0
2023-10-23T18:25:35.509Z,0
2023-10-23T18:30:43.408Z,0
2023-10-23T18:35:37.052Z,0
2023-10-23T18:40:35.736Z,0
2023-10-23T18:45:44.059Z,0
2023-10-23T18:50:44.276Z,0
2023-10-23T18:55:34.193Z,0
2023-10-23T19:00:25.413Z,0
2023-10-23T19:05:22.703Z,0
2023-10-23T19:10:22.205Z,0
2023-10-23T19:15:21.743Z,0
2023-10-23T19:20:22.307Z,0
2023-10-23T19:25:22.086Z,0
2023-10-23T19:30:21.679Z,0
2023-10-23T19:35:22.872Z,0
2023-10-23T19:40:22.014Z,0
2023-10-23T19:45:23.018Z,0
2023-10-23T19:50:19.623Z,0
2023-10-23T19:56:15.482Z,0
2023-10-23T20:00:02.177Z,0
2023-10-23T20:05:03.110Z,0
2023-10-23T20:10:03.121Z,0
2023-10-23T20:15:02.993Z,0
2023-10-23T20:20:03.742Z,0
2023-10-23T20:25:03.734Z,0
2023-10-23T20:30:00.108Z,0
2023-10-23T20:34:59.887Z,0
2023-10-23T20:39:59.615Z,0
2023-10-23T20:45:00.136Z,0
2023-10-23T20:49:59.896Z,0
2023-10-23T20:55:00.073Z,0
2023-10-23T20:59:59.483Z,0
2023-10-23T21:04:59.796Z,0
2023-10-23T21:09:58.672Z,0
2023-10-23T21:14:58.653Z,0
2023-10-23T21:19:58.813Z,0
2023-10-23T21:24:58.497Z,0
2023-10-23T21:29:59.364Z,0
2023-10-23T21:35:00.193Z,0
2023-10-23T21:39:58.133Z,0
2023-10-23T21:44:58.022Z,0
2023-10-23T21:49:58.043Z,0
2023-10-23T21:54:55.600Z,0
2023-10-23T22:00:26.321Z,0
2023-10-23T22:02:28.650Z,0
2023-10-23T22:06:17.030Z,0
2023-10-23T22:11:17.049Z,0
2023-10-23T22:16:17.371Z,0
2023-10-23T22:21:16.925Z,0
2023-10-23T22:26:17.206Z,0
2023-10-23T22:31:14.737Z,0
2023-10-23T22:36:18.925Z,0
2023-10-23T22:41:14.116Z,0
2023-10-23T22:46:18.906Z,0
2023-10-23T22:51:13.701Z,0
2023-10-23T22:56:13.702Z,0
2023-10-23T23:00:36.197Z,0
2023-10-23T23:05:36.496Z,0
2023-10-23T23:10:37.430Z,0
2023-10-23T23:15:33.480Z,0
2023-10-23T23:20:43.838Z,0
2023-10-23T23:25:45.520Z,0
2023-10-23T23:30:43.969Z,0
2023-10-23T23:40:44.688Z,0
2023-10-23T23:45:43.028Z,0
2023-10-23T23:50:43.091Z,0
2023-10-23T23:55:43.466Z,0
